Time;durP1;ratioP1;P1;durP2;ratioP2;P2;SDS_P1;SDS_P2;PMS_P1;PMS_P2;Temp;Humidity;BMP_temperature;BMP_pressure;BME280_temperature;BME280_humidity;BME280_pressure;Samples;Min_cycle;Max_cycle;Signal;HPM_P1;HPM_P2
2023/04/30 00:01:27;;;;;;;13.60;8.00;;;11.20;99.90;;;;;;5070354;28;20493;-47
2023/04/30 00:03:54;;;;;;;15.80;6.85;;;11.20;99.90;;;;;;5069498;28;20135;-47
2023/04/30 00:06:21;;;;;;;12.18;7.35;;;11.20;99.90;;;;;;5070076;28;20078;-47
2023/04/30 00:08:48;;;;;;;11.38;7.07;;;11.10;99.90;;;;;;5068988;28;20068;-47
2023/04/30 00:11:15;;;;;;;13.27;7.68;;;11.60;99.90;;;;;;5070613;28;20520;-48
2023/04/30 00:13:42;;;;;;;19.30;7.22;;;11.10;99.90;;;;;;5068855;28;20075;-47
2023/04/30 00:16:09;;;;;;;13.43;7.82;;;11.00;99.90;;;;;;5071316;28;20048;-49
2023/04/30 00:18:37;;;;;;;14.30;8.05;;;11.00;99.90;;;;;;5075872;28;20051;-47
2023/04/30 00:21:04;;;;;;;10.85;7.53;;;11.00;99.90;;;;;;5082311;28;20453;-47
2023/04/30 00:23:31;;;;;;;13.45;7.70;;;11.00;99.90;;;;;;5090050;28;20512;-47
2023/04/30 00:25:57;;;;;;;10.77;6.72;;;10.90;99.90;;;;;;5088003;28;20036;-47
2023/04/30 00:28:24;;;;;;;12.63;7.45;;;10.90;99.90;;;;;;5081129;28;20036;-48
2023/04/30 00:30:51;;;;;;;18.27;7.40;;;11.00;99.90;;;;;;5071381;28;20040;-47
2023/04/30 00:33:18;;;;;;;13.45;7.20;;;11.00;99.90;;;;;;5083432;28;20105;-47
2023/04/30 00:35:45;;;;;;;12.20;7.10;;;10.90;99.90;;;;;;5072390;28;20512;-50
2023/04/30 00:38:11;;;;;;;12.95;7.72;;;10.90;99.90;;;;;;5052243;28;20443;-47
2023/04/30 00:40:43;;;;;;;11.15;7.45;;;10.90;99.90;;;;;;5066097;28;20048;-48
2023/04/30 00:43:09;;;;;;;16.88;7.47;;;10.90;99.90;;;;;;5071706;28;20048;-47
2023/04/30 00:45:36;;;;;;;18.15;7.80;;;10.90;99.90;;;;;;5070481;28;20082;-48
2023/04/30 00:48:03;;;;;;;15.75;7.95;;;10.90;99.90;;;;;;5075082;28;20047;-48
2023/04/30 00:50:30;;;;;;;17.17;7.70;;;10.90;99.90;;;;;;5093398;28;20059;-47
2023/04/30 00:52:58;;;;;;;9.85;7.50;;;10.90;99.90;;;;;;5094298;28;20052;-47
2023/04/30 00:55:25;;;;;;;11.27;7.72;;;10.80;99.90;;;;;;5061305;28;20052;-47
2023/04/30 00:57:53;;;;;;;13.15;8.18;;;10.80;99.90;;;;;;5074081;28;20089;-48
2023/04/30 01:00:20;;;;;;;11.50;7.10;;;10.80;99.90;;;;;;5073063;28;20485;-47
2023/04/30 01:02:48;;;;;;;12.45;7.70;;;10.90;99.90;;;;;;5062788;28;20048;-47
2023/04/30 01:05:14;;;;;;;11.07;7.72;;;10.80;99.90;;;;;;5075249;28;20036;-49
2023/04/30 01:07:44;;;;;;;11.40;7.75;;;10.90;99.90;;;;;;5072180;28;20079;-48
2023/04/30 01:10:13;;;;;;;11.05;7.18;;;10.90;99.90;;;;;;5082804;28;20131;-47
2023/04/30 01:12:49;;;;;;;15.23;8.35;;;10.80;99.90;;;;;;5072846;28;20048;-49
2023/04/30 01:15:31;;;;;;;15.13;8.30;;;10.80;99.90;;;;;;5053916;28;20111;-47
2023/04/30 01:18:15;;;;;;;11.60;7.75;;;10.80;99.90;;;;;;5062608;28;20044;-47
2023/04/30 01:21:02;;;;;;;11.65;7.38;;;10.80;99.90;;;;;;5071828;28;20047;-48
2023/04/30 01:24:06;;;;;;;13.27;8.02;;;10.80;99.90;;;;;;5074128;28;20124;-47
2023/04/30 01:27:04;;;;;;;14.35;7.07;;;10.80;99.90;;;;;;5073920;28;20044;-47
2023/04/30 01:29:33;;;;;;;17.50;7.95;;;10.80;99.90;;;;;;5066318;28;20052;-47
2023/04/30 01:32:01;;;;;;;19.20;8.02;;;10.80;99.90;;;;;;5073656;28;20048;-47
2023/04/30 01:34:28;;;;;;;13.27;8.00;;;10.80;99.90;;;;;;5056336;28;20564;-47
2023/04/30 01:37:05;;;;;;;12.25;7.63;;;10.80;99.90;;;;;;5058679;28;20048;-48
2023/04/30 01:40:00;;;;;;;11.93;7.05;;;10.90;99.90;;;;;;5083671;28;20044;-47
2023/04/30 01:42:40;;;;;;;13.40;7.35;;;10.90;99.90;;;;;;5094081;28;20570;-47
2023/04/30 01:45:45;;;;;;;10.88;7.53;;;10.90;99.90;;;;;;5068867;28;20045;-47
2023/04/30 01:48:26;;;;;;;11.75;7.65;;;11.00;99.90;;;;;;4989052;28;20518;-47
2023/04/30 01:51:04;;;;;;;11.00;7.25;;;10.90;99.90;;;;;;5071338;28;20056;-47
2023/04/30 01:53:41;;;;;;;12.65;7.38;;;10.90;99.90;;;;;;5054624;28;20036;-47
2023/04/30 01:56:26;;;;;;;13.77;7.95;;;10.90;99.90;;;;;;5059969;28;20084;-49
2023/04/30 01:58:53;;;;;;;11.60;7.57;;;10.90;99.90;;;;;;5053698;28;20044;-47
2023/04/30 02:01:27;;;;;;;;;;;10.80;99.90;;;;;;5060769;28;20040;-48
2023/04/30 02:03:54;;;;;;;15.10;7.43;;;10.80;99.90;;;;;;5054392;28;19920;-47
2023/04/30 02:06:28;;;;;;;15.13;8.77;;;10.70;99.90;;;;;;5054457;28;20057;-47
2023/04/30 02:09:01;;;;;;;13.25;8.40;;;10.80;99.90;;;;;;5054897;28;20076;-47
2023/04/30 02:11:34;;;;;;;13.80;7.78;;;10.80;99.90;;;;;;5078083;28;20538;-51
2023/04/30 02:14:01;;;;;;;16.55;9.43;;;10.80;99.90;;;;;;5052751;28;20486;-48
2023/04/30 02:16:27;;;;;;;12.88;8.52;;;10.70;99.90;;;;;;5055632;28;20098;-48
2023/04/30 02:18:54;;;;;;;13.68;8.57;;;10.70;99.90;;;;;;5058169;28;20483;-49
2023/04/30 02:21:21;;;;;;;11.60;7.75;;;10.70;99.90;;;;;;5054388;28;20045;-49
2023/04/30 02:23:48;;;;;;;14.70;8.40;;;10.70;99.90;;;;;;5075670;28;20036;-48
2023/04/30 02:26:15;;;;;;;15.05;9.45;;;10.60;99.90;;;;;;5078445;28;20032;-47
2023/04/30 02:28:41;;;;;;;16.23;8.90;;;10.60;99.90;;;;;;5053724;28;20048;-47
2023/04/30 02:31:10;;;;;;;23.88;9.57;;;10.60;99.90;;;;;;5072330;28;20120;-47
2023/04/30 02:33:37;;;;;;;14.65;7.78;;;10.50;99.90;;;;;;5072134;28;20049;-47
2023/04/30 02:36:04;;;;;;;13.48;8.32;;;10.50;99.90;;;;;;5077210;28;20094;-49
2023/04/30 02:38:31;;;;;;;13.95;7.80;;;10.50;99.90;;;;;;5076932;28;20543;-49
2023/04/30 02:40:57;;;;;;;13.30;8.38;;;10.50;99.90;;;;;;5091846;28;20059;-51
2023/04/30 02:43:24;;;;;;;15.82;8.73;;;10.50;99.90;;;;;;5092416;28;20157;-47
2023/04/30 02:45:51;;;;;;;13.68;8.57;;;10.50;99.90;;;;;;5074654;28;20033;-47
2023/04/30 02:48:18;;;;;;;15.30;8.55;;;10.50;99.90;;;;;;5053177;28;20056;-48
2023/04/30 02:50:44;;;;;;;16.65;8.77;;;10.60;99.90;;;;;;5079217;28;20097;-47
2023/04/30 02:53:11;;;;;;;14.27;8.95;;;10.60;99.90;;;;;;5053693;28;20040;-47
2023/04/30 02:55:38;;;;;;;15.93;8.30;;;10.60;99.90;;;;;;5071607;28;20063;-49
2023/04/30 02:58:04;;;;;;;16.23;8.88;;;10.60;99.90;;;;;;5073537;28;20032;-48
2023/04/30 03:00:31;;;;;;;17.27;8.85;;;10.50;99.90;;;;;;5085009;28;20036;-47
2023/04/30 03:02:58;;;;;;;17.35;9.40;;;10.60;99.90;;;;;;5062840;28;20042;-47
2023/04/30 03:05:27;;;;;;;15.20;9.05;;;10.60;99.90;;;;;;5078918;28;20316;-48
2023/04/30 03:07:54;;;;;;;11.40;8.30;;;10.60;99.90;;;;;;5052655;28;20035;-49
2023/04/30 03:10:21;;;;;;;;;;;10.50;99.90;;;;;;5051825;28;20036;-48
2023/04/30 03:12:48;;;;;;;14.88;8.98;;;10.50;99.90;;;;;;5054895;28;19924;-49
2023/04/30 03:15:16;;;;;;;19.60;9.10;;;10.60;99.90;;;;;;5059920;28;20044;-47
2023/04/30 03:17:44;;;;;;;16.77;8.38;;;10.60;99.90;;;;;;5053668;28;20044;-47
2023/04/30 03:20:12;;;;;;;15.35;9.13;;;10.50;99.90;;;;;;5069055;28;20040;-50
2023/04/30 03:22:39;;;;;;;14.20;8.70;;;10.50;99.90;;;;;;5072152;28;20121;-47
2023/04/30 03:25:08;;;;;;;18.42;9.35;;;10.50;99.90;;;;;;5054788;28;20052;-49
2023/04/30 03:27:35;;;;;;;15.85;8.57;;;10.50;99.90;;;;;;5053878;28;20072;-47
2023/04/30 03:30:02;;;;;;;20.77;10.55;;;10.40;99.90;;;;;;5051722;28;20447;-47
2023/04/30 03:32:28;;;;;;;15.18;9.00;;;10.40;99.90;;;;;;5071610;28;20048;-48
2023/04/30 03:34:55;;;;;;;16.90;9.32;;;10.40;99.90;;;;;;5070563;28;20074;-47
2023/04/30 03:37:22;;;;;;;15.52;8.98;;;10.40;99.90;;;;;;5053997;28;20255;-47
2023/04/30 03:39:49;;;;;;;18.67;10.52;;;10.50;99.90;;;;;;5052372;28;20421;-48
2023/04/30 03:42:16;;;;;;;14.75;9.60;;;10.50;99.90;;;;;;5080674;28;20045;-48
2023/04/30 03:44:42;;;;;;;17.02;9.63;;;10.40;99.90;;;;;;5070441;28;20107;-48
2023/04/30 03:47:09;;;;;;;16.83;10.55;;;10.40;99.90;;;;;;5071937;28;20062;-47
2023/04/30 03:49:36;;;;;;;23.85;11.15;;;10.30;99.90;;;;;;5051345;28;20044;-47
2023/04/30 03:52:04;;;;;;;18.85;10.05;;;10.30;99.90;;;;;;5052958;28;20074;-47
2023/04/30 03:54:32;;;;;;;17.17;10.40;;;10.30;99.90;;;;;;5070540;28;20413;-47
2023/04/30 03:57:03;;;;;;;18.50;10.95;;;10.30;99.90;;;;;;5069630;28;20044;-47
2023/04/30 03:59:31;;;;;;;16.75;9.85;;;10.30;99.90;;;;;;5065564;28;20040;-47
2023/04/30 04:02:00;;;;;;;21.20;10.88;;;10.30;99.90;;;;;;5073031;28;20715;-47
2023/04/30 04:04:27;;;;;;;20.70;11.70;;;10.30;99.90;;;;;;5071894;28;20524;-48
2023/04/30 04:06:54;;;;;;;21.27;10.88;;;10.20;99.90;;;;;;5065144;28;20086;-47
2023/04/30 04:09:21;;;;;;;20.30;11.38;;;10.20;99.90;;;;;;5058519;28;20123;-48
2023/04/30 04:11:47;;;;;;;16.33;10.38;;;10.20;99.90;;;;;;5052929;28;20048;-47
2023/04/30 04:14:15;;;;;;;19.83;11.73;;;10.20;99.90;;;;;;5052157;28;20043;-48
2023/04/30 04:16:43;;;;;;;25.33;11.57;;;10.20;99.90;;;;;;5079434;28;20045;-47
2023/04/30 04:19:11;;;;;;;26.20;12.15;;;10.20;99.90;;;;;;5064819;28;20071;-48
2023/04/30 04:21:38;;;;;;;26.42;11.30;;;10.30;99.90;;;;;;5052812;28;20516;-48
2023/04/30 04:24:11;;;;;;;18.10;11.00;;;10.20;99.90;;;;;;5051310;28;20038;-47
2023/04/30 04:26:38;;;;;;;18.40;10.63;;;10.20;99.90;;;;;;5057577;28;20058;-48
2023/04/30 04:29:09;;;;;;;25.10;11.77;;;10.20;99.90;;;;;;5054831;28;20516;-49
2023/04/30 04:31:37;;;;;;;18.98;11.10;;;10.30;99.90;;;;;;5067321;28;20048;-48
2023/04/30 04:34:04;;;;;;;19.75;11.30;;;10.30;99.90;;;;;;5072221;28;20427;-47
2023/04/30 04:36:32;;;;;;;18.20;10.35;;;10.30;99.90;;;;;;5071739;28;20032;-47
2023/04/30 04:39:03;;;;;;;18.95;10.02;;;10.40;99.90;;;;;;5052870;28;20555;-47
2023/04/30 04:41:34;;;;;;;18.45;10.60;;;10.30;99.90;;;;;;5065859;28;20504;-48
2023/04/30 04:44:03;;;;;;;16.52;10.55;;;10.40;99.90;;;;;;5072313;28;20071;-48
2023/04/30 04:46:31;;;;;;;17.98;10.98;;;10.40;99.90;;;;;;5068045;28;20451;-47
2023/04/30 04:48:58;;;;;;;20.75;11.32;;;10.40;99.90;;;;;;5052895;28;20044;-48
2023/04/30 04:51:25;;;;;;;18.13;10.32;;;10.40;99.90;;;;;;5070935;22;20114;-48
2023/04/30 04:53:53;;;;;;;16.50;10.00;;;10.40;99.90;;;;;;5045146;28;20040;-48
2023/04/30 04:56:20;;;;;;;16.85;9.48;;;10.40;99.90;;;;;;5027641;28;20080;-47
2023/04/30 04:58:46;;;;;;;19.85;10.45;;;10.40;99.90;;;;;;5032989;28;20056;-49
2023/04/30 05:01:14;;;;;;;16.05;9.40;;;10.50;99.90;;;;;;5032126;28;20100;-47
2023/04/30 05:03:40;;;;;;;;;;;10.50;99.90;;;;;;5028625;28;20465;-47
2023/04/30 05:06:07;;;;;;;16.98;9.50;;;10.50;99.90;;;;;;5041465;28;19929;-47
2023/04/30 05:08:35;;;;;;;18.55;9.70;;;10.50;99.90;;;;;;5027776;28;20046;-47
2023/04/30 05:11:02;;;;;;;;;;;10.50;99.90;;;;;;5028005;28;20522;-48
2023/04/30 05:13:28;;;;;;;16.00;9.23;;;10.50;99.90;;;;;;5030718;28;19967;-47
2023/04/30 05:15:55;;;;;;;19.13;10.02;;;10.50;99.90;;;;;;5024972;28;20743;-47
2023/04/30 05:18:22;;;;;;;17.08;9.80;;;10.50;99.90;;;;;;5028242;28;20046;-47
2023/04/30 05:20:49;;;;;;;22.88;10.60;;;10.50;99.90;;;;;;5017932;28;20104;-47
2023/04/30 05:23:16;;;;;;;18.17;9.52;;;10.50;99.90;;;;;;5029838;28;20099;-50
2023/04/30 05:25:42;;;;;;;17.95;9.60;;;10.60;99.90;;;;;;5022754;28;20065;-47
2023/04/30 05:28:09;;;;;;;16.98;9.18;;;10.50;99.90;;;;;;5010790;28;20030;-47
2023/04/30 05:30:36;;;;;;;15.68;9.25;;;10.60;99.90;;;;;;5018632;28;20038;-48
2023/04/30 05:33:03;;;;;;;16.80;9.50;;;10.50;99.90;;;;;;5014571;28;20121;-47
2023/04/30 05:35:30;;;;;;;17.13;9.82;;;10.60;99.90;;;;;;5014479;28;20116;-47
2023/04/30 05:37:57;;;;;;;18.73;9.00;;;10.60;99.90;;;;;;5023663;28;20045;-48
2023/04/30 05:40:24;;;;;;;16.88;8.88;;;10.60;99.90;;;;;;5017646;28;20072;-47
2023/04/30 05:42:50;;;;;;;18.52;9.40;;;10.60;99.90;;;;;;5012592;28;20119;-47
2023/04/30 05:45:17;;;;;;;16.05;8.18;;;10.60;99.90;;;;;;5017339;28;20113;-48
2023/04/30 05:47:44;;;;;;;19.10;9.45;;;10.60;99.90;;;;;;5020940;28;20092;-47
2023/04/30 05:50:11;;;;;;;14.70;8.98;;;10.60;99.90;;;;;;5026575;28;20046;-47
2023/04/30 05:52:37;;;;;;;18.40;9.10;;;10.70;99.90;;;;;;5013753;28;20069;-48
2023/04/30 05:55:05;;;;;;;13.15;8.35;;;10.70;99.90;;;;;;5012496;28;20178;-47
2023/04/30 05:57:32;;;;;;;14.80;9.65;;;10.80;99.90;;;;;;5014350;28;20450;-47
2023/04/30 05:59:59;;;;;;;15.57;8.35;;;10.90;99.90;;;;;;5011496;28;20041;-47
2023/04/30 06:02:25;;;;;;;11.55;8.25;;;11.00;99.90;;;;;;5013386;28;20038;-47
2023/04/30 06:04:52;;;;;;;15.25;9.13;;;11.10;99.90;;;;;;5012613;28;20046;-48
2023/04/30 06:07:19;;;;;;;14.93;8.35;;;11.20;99.90;;;;;;5013713;28;20041;-47
2023/04/30 06:09:46;;;;;;;14.30;8.23;;;11.30;99.90;;;;;;5012406;28;20459;-47
2023/04/30 06:12:12;;;;;;;16.00;8.82;;;11.40;99.90;;;;;;5020529;28;20074;-48
2023/04/30 06:14:42;;;;;;;13.90;8.38;;;11.40;99.90;;;;;;5019111;28;20060;-47
2023/04/30 06:17:09;;;;;;;12.57;8.20;;;11.50;99.90;;;;;;5029747;28;20449;-47
2023/04/30 06:19:37;;;;;;;12.73;8.30;;;11.50;99.90;;;;;;5012324;28;20034;-48
2023/04/30 06:22:04;;;;;;;15.25;8.60;;;11.60;99.90;;;;;;5018135;28;20552;-47
2023/04/30 06:24:31;;;;;;;13.50;8.65;;;11.70;99.90;;;;;;5012809;28;20088;-47
2023/04/30 06:26:58;;;;;;;11.30;7.68;;;11.80;99.90;;;;;;5012401;28;20457;-47
2023/04/30 06:29:24;;;;;;;14.07;9.07;;;11.90;99.90;;;;;;5027037;28;20405;-48
2023/04/30 06:31:51;;;;;;;12.40;8.30;;;12.00;99.90;;;;;;5024710;28;20042;-48
2023/04/30 06:34:19;;;;;;;14.27;8.20;;;12.20;99.90;;;;;;5012619;28;20048;-45
2023/04/30 06:36:46;;;;;;;15.60;8.07;;;12.30;99.90;;;;;;5013246;28;20676;-48
2023/04/30 06:39:14;;;;;;;13.32;8.52;;;12.40;99.90;;;;;;5015560;28;20126;-47
2023/04/30 06:41:41;;;;;;;13.18;8.23;;;12.50;99.90;;;;;;5025762;28;20454;-48
2023/04/30 06:44:09;;;;;;;12.77;8.30;;;12.50;99.90;;;;;;5018618;28;20125;-47
2023/04/30 06:46:36;;;;;;;17.38;8.82;;;12.50;99.90;;;;;;5023944;28;20042;-48
2023/04/30 06:49:02;;;;;;;13.93;8.23;;;12.50;99.90;;;;;;5026144;28;20124;-48
2023/04/30 06:51:29;;;;;;;13.38;8.15;;;12.60;99.90;;;;;;5022457;28;20034;-47
2023/04/30 06:53:56;;;;;;;15.60;9.80;;;12.60;99.90;;;;;;5011699;28;20044;-48
2023/04/30 06:56:23;;;;;;;14.07;8.88;;;12.70;99.90;;;;;;5013339;28;20041;-45
2023/04/30 06:58:50;;;;;;;;;;;12.70;99.90;;;;;;5012827;28;20041;-48
2023/04/30 07:01:17;;;;;;;13.93;9.25;;;12.80;99.90;;;;;;5019941;28;19961;-49
2023/04/30 07:03:44;;;;;;;16.10;8.85;;;12.80;99.90;;;;;;5012807;28;20073;-47
2023/04/30 07:06:11;;;;;;;16.13;9.18;;;12.80;99.90;;;;;;5026273;28;20612;-47
2023/04/30 07:08:39;;;;;;;16.88;9.02;;;12.80;99.90;;;;;;5012131;28;20069;-46
2023/04/30 07:11:06;;;;;;;16.50;9.45;;;12.80;99.90;;;;;;5022510;28;20404;-47
2023/04/30 07:13:33;;;;;;;18.65;10.73;;;12.70;99.90;;;;;;5012564;28;20149;-47
2023/04/30 07:16:00;;;;;;;16.70;10.02;;;12.70;99.90;;;;;;5010570;28;20073;-47
2023/04/30 07:18:27;;;;;;;16.80;9.60;;;12.60;99.90;;;;;;5012152;28;20056;-48
2023/04/30 07:20:54;;;;;;;16.30;9.50;;;12.70;99.90;;;;;;5014217;28;20058;-47
2023/04/30 07:23:21;;;;;;;17.08;10.00;;;12.70;99.90;;;;;;5019394;28;20069;-47
2023/04/30 07:25:48;;;;;;;14.25;10.13;;;12.70;99.90;;;;;;5018156;28;20046;-47
2023/04/30 07:28:14;;;;;;;14.50;8.93;;;12.80;99.90;;;;;;5020042;28;20100;-47
2023/04/30 07:30:41;;;;;;;17.17;8.85;;;13.00;99.90;;;;;;5015540;28;20084;-50
2023/04/30 07:33:08;;;;;;;15.30;9.55;;;13.10;99.90;;;;;;5022711;28;20077;-46
2023/04/30 07:35:35;;;;;;;15.73;8.60;;;13.00;99.90;;;;;;5019348;28;20592;-46
2023/04/30 07:38:03;;;;;;;15.38;9.73;;;12.90;99.90;;;;;;5011361;28;20100;-47
2023/04/30 07:40:30;;;;;;;14.20;9.60;;;12.80;99.90;;;;;;5009959;28;20140;-48
2023/04/30 07:43:03;;;;;;;16.65;9.40;;;12.70;99.90;;;;;;5011573;28;20517;-48
2023/04/30 07:45:30;;;;;;;14.15;8.90;;;12.60;99.90;;;;;;5010591;28;20053;-47
2023/04/30 07:47:57;;;;;;;13.27;9.30;;;12.50;99.90;;;;;;5011746;28;20108;-47
2023/04/30 07:50:24;;;;;;;12.18;8.38;;;12.50;99.90;;;;;;5012502;28;20034;-47
2023/04/30 07:52:51;;;;;;;14.05;9.48;;;12.50;99.90;;;;;;5011253;28;20069;-47
2023/04/30 07:55:18;;;;;;;16.25;8.77;;;12.70;99.90;;;;;;5009774;28;20033;-47
2023/04/30 07:57:44;;;;;;;15.15;9.38;;;12.70;99.90;;;;;;5011187;28;20042;-47
2023/04/30 08:00:12;;;;;;;15.60;9.20;;;12.70;99.90;;;;;;5019546;28;20057;-48
2023/04/30 08:02:39;;;;;;;14.35;9.48;;;12.70;99.90;;;;;;5015949;28;20045;-46
2023/04/30 08:05:06;;;;;;;13.55;8.10;;;12.70;99.90;;;;;;5010916;28;20092;-47
2023/04/30 08:07:33;;;;;;;13.70;8.93;;;12.70;99.90;;;;;;5023136;28;20041;-47
2023/04/30 08:10:00;;;;;;;12.73;8.43;;;12.70;99.90;;;;;;5018932;28;20383;-46
2023/04/30 08:12:26;;;;;;;12.23;8.38;;;12.70;99.90;;;;;;5030137;28;20096;-47
2023/04/30 08:15:03;;;;;;;13.13;8.93;;;12.80;99.90;;;;;;5029209;28;20045;-47
2023/04/30 08:17:31;;;;;;;17.10;9.45;;;12.90;99.90;;;;;;5010985;28;20092;-49
2023/04/30 08:19:59;;;;;;;14.35;9.52;;;12.90;99.90;;;;;;5027141;28;20050;-47
2023/04/30 08:22:26;;;;;;;13.80;8.48;;;12.90;99.90;;;;;;5030801;28;20730;-47
2023/04/30 08:24:54;;;;;;;14.10;8.55;;;13.00;99.90;;;;;;5028543;28;20103;-47
2023/04/30 08:27:22;;;;;;;12.57;8.27;;;13.20;99.90;;;;;;5017289;28;20041;-47
2023/04/30 08:29:48;;;;;;;13.20;8.00;;;13.30;99.90;;;;;;5019001;28;20501;-47
2023/04/30 08:32:17;;;;;;;13.93;8.32;;;13.30;99.90;;;;;;5023745;28;20091;-49
2023/04/30 08:34:45;;;;;;;13.38;8.30;;;13.30;99.90;;;;;;5017033;28;20049;-48
2023/04/30 08:37:11;;;;;;;12.07;8.27;;;13.10;99.90;;;;;;5020142;28;20041;-48
2023/04/30 08:39:38;;;;;;;12.10;8.18;;;13.10;99.90;;;;;;5015574;28;20096;-47
2023/04/30 08:42:08;;;;;;;12.32;8.10;;;13.10;99.90;;;;;;5018362;28;20041;-48
2023/04/30 08:44:38;;;;;;;12.68;8.10;;;13.30;99.90;;;;;;5020937;28;20458;-48
2023/04/30 08:47:06;;;;;;;10.65;6.97;;;13.40;99.90;;;;;;5018780;28;20045;-47
2023/04/30 08:49:35;;;;;;;11.95;7.32;;;13.70;99.90;;;;;;5020340;28;20100;-47
2023/04/30 08:52:02;;;;;;;12.82;6.80;;;14.10;99.90;;;;;;5016522;28;20129;-48
2023/04/30 08:54:34;;;;;;;10.13;7.45;;;14.50;99.90;;;;;;5018995;28;20142;-47
2023/04/30 08:57:01;;;;;;;10.38;6.15;;;14.90;99.90;;;;;;5019032;28;20510;-47
2023/04/30 08:59:28;;;;;;;10.52;7.07;;;15.10;99.90;;;;;;5022149;28;20072;-47
2023/04/30 09:01:55;;;;;;;8.85;6.53;;;15.20;99.90;;;;;;5018478;28;20042;-47
2023/04/30 09:04:22;;;;;;;11.20;6.68;;;15.10;99.90;;;;;;5018932;28;20128;-47
2023/04/30 09:06:52;;;;;;;9.43;6.88;;;15.10;99.90;;;;;;5027254;28;20091;-49
2023/04/30 09:09:19;;;;;;;10.25;6.47;;;15.10;99.90;;;;;;5033278;28;20072;-47
2023/04/30 09:11:45;;;;;;;9.30;6.68;;;15.00;99.90;;;;;;5029763;28;20083;-48
2023/04/30 09:14:12;;;;;;;11.77;6.82;;;15.00;99.90;;;;;;5029411;28;20503;-47
2023/04/30 09:16:50;;;;;;;10.85;7.38;;;15.30;99.90;;;;;;5029699;28;20437;-47
2023/04/30 09:19:24;;;;;;;10.73;6.57;;;15.30;99.90;;;;;;5027054;28;20049;-47
2023/04/30 09:21:51;;;;;;;12.63;7.15;;;15.40;99.90;;;;;;5012967;28;20119;-49
2023/04/30 09:24:18;;;;;;;9.48;6.93;;;15.40;99.90;;;;;;5013393;28;20108;-46
2023/04/30 09:26:46;;;;;;;10.13;7.28;;;15.40;99.90;;;;;;5017193;28;20121;-48
2023/04/30 09:29:13;;;;;;;10.80;7.00;;;15.50;99.90;;;;;;5014256;28;20046;-47
2023/04/30 09:31:46;;;;;;;10.65;7.15;;;15.50;99.90;;;;;;5012648;28;20073;-48
2023/04/30 09:34:13;;;;;;;12.07;8.48;;;15.40;99.90;;;;;;5015434;28;20045;-46
2023/04/30 09:36:58;;;;;;;10.98;7.32;;;15.60;99.90;;;;;;5041952;28;20084;-48
2023/04/30 09:39:25;;;;;;;10.63;7.25;;;15.90;99.90;;;;;;5022705;28;20046;-47
2023/04/30 09:41:52;;;;;;;10.15;6.45;;;16.20;99.90;;;;;;5024417;28;20069;-47
2023/04/30 09:44:30;;;;;;;6.95;5.85;;;16.30;99.90;;;;;;5020196;28;20077;-47
2023/04/30 09:46:57;;;;;;;;;;;16.30;99.90;;;;;;5014012;28;20049;-47
2023/04/30 09:49:26;;;;;;;8.20;6.38;;;16.20;99.90;;;;;;5012287;28;19976;-47
2023/04/30 09:51:55;;;;;;;15.15;6.38;;;16.00;99.90;;;;;;5021262;28;20056;-47
2023/04/30 09:54:27;;;;;;;9.48;6.35;;;15.90;99.90;;;;;;5014024;28;20446;-47
2023/04/30 09:56:56;;;;;;;9.95;6.38;;;15.80;99.90;;;;;;5032169;28;20046;-48
2023/04/30 09:59:32;;;;;;;10.10;6.88;;;15.60;99.90;;;;;;5012408;28;20120;-47
2023/04/30 10:02:01;;;;;;;7.75;6.30;;;15.80;99.90;;;;;;5013002;28;20553;-47
2023/04/30 10:04:34;;;;;;;8.80;6.68;;;15.80;99.90;;;;;;5016102;28;20037;-47
2023/04/30 10:07:16;;;;;;;11.30;6.45;;;15.80;99.90;;;;;;5024275;28;20054;-47
2023/04/30 10:09:48;;;;;;;8.27;5.90;;;15.80;99.90;;;;;;5021761;28;20037;-47
2023/04/30 10:12:30;;;;;;;8.68;5.45;;;15.80;99.90;;;;;;5028507;28;20037;-47
2023/04/30 10:15:08;;;;;;;7.32;5.60;;;15.60;99.90;;;;;;5012393;28;20081;-49
2023/04/30 10:17:39;;;;;;;6.63;5.65;;;15.60;99.90;;;;;;5012051;28;20072;-47
2023/04/30 10:20:10;;;;;;;9.82;6.00;;;15.70;99.90;;;;;;5012184;28;20053;-47
2023/04/30 10:22:37;;;;;;;6.78;5.28;;;15.70;99.90;;;;;;5019658;28;20081;-47
2023/04/30 10:25:04;;;;;;;;;;;15.80;99.90;;;;;;5014263;28;20065;-49
2023/04/30 10:27:32;;;;;;;8.27;5.90;;;15.90;99.90;;;;;;5012797;28;19961;-48
2023/04/30 10:29:59;;;;;;;10.48;5.63;;;16.10;99.90;;;;;;5012309;28;20092;-47
2023/04/30 10:32:36;;;;;;;8.80;5.40;;;16.20;99.90;;;;;;5020925;28;20080;-48
2023/04/30 10:35:13;;;;;;;7.00;5.30;;;16.40;99.90;;;;;;5012847;28;20038;-47
2023/04/30 10:37:48;;;;;;;5.38;4.38;;;16.40;99.90;;;;;;5017063;28;20042;-48
2023/04/30 10:40:15;;;;;;;6.20;4.45;;;16.50;99.90;;;;;;5012028;28;20038;-47
2023/04/30 10:42:47;;;;;;;9.88;4.57;;;16.60;99.90;;;;;;5014935;28;20088;-47
2023/04/30 10:45:15;;;;;;;8.27;4.57;;;16.70;99.90;;;;;;5011250;28;20038;-47
2023/04/30 10:47:44;;;;;;;8.43;5.40;;;16.70;99.90;;;;;;5010968;28;20042;-47
2023/04/30 10:50:12;;;;;;;5.85;4.05;;;16.80;99.90;;;;;;5016037;28;20046;-47
2023/04/30 10:52:39;;;;;;;5.57;4.20;;;16.70;99.90;;;;;;5021161;28;20386;-47
2023/04/30 10:55:07;;;;;;;5.57;4.32;;;16.70;99.90;;;;;;5013190;28;20048;-47
2023/04/30 10:57:41;;;;;;;7.78;3.97;;;16.70;99.90;;;;;;5012666;28;20041;-47
2023/04/30 11:00:09;;;;;;;4.50;3.75;;;16.70;99.90;;;;;;5012433;28;20046;-47
2023/04/30 11:02:42;;;;;;;;;;;16.70;99.90;;;;;;5011495;28;20483;-47
2023/04/30 11:05:10;;;;;;;5.60;3.95;;;16.70;99.90;;;;;;5017733;28;20011;-47
2023/04/30 11:07:55;;;;;;;8.02;4.10;;;17.00;99.90;;;;;;5015947;28;20042;-47
2023/04/30 11:10:25;;;;;;;8.82;3.92;;;17.00;99.90;;;;;;5011304;28;20053;-48
2023/04/30 11:12:53;;;;;;;6.20;3.75;;;17.10;99.90;;;;;;5015043;28;20045;-48
2023/04/30 11:15:24;;;;;;;4.00;2.90;;;17.20;99.90;;;;;;5014172;28;20951;-47
2023/04/30 11:17:57;;;;;;;5.90;3.22;;;17.20;99.90;;;;;;5011628;28;20071;-48
2023/04/30 11:20:25;;;;;;;3.38;3.08;;;17.10;99.90;;;;;;5011165;28;20046;-47
2023/04/30 11:23:11;;;;;;;4.22;2.83;;;17.10;99.90;;;;;;5012537;28;20045;-47
2023/04/30 11:25:46;;;;;;;6.32;3.13;;;17.20;99.90;;;;;;5011312;28;20726;-47
2023/04/30 11:28:26;;;;;;;5.25;3.70;;;17.40;99.90;;;;;;5011533;28;20042;-48
2023/04/30 11:30:55;;;;;;;4.43;3.35;;;17.50;99.90;;;;;;5015330;28;20042;-47
2023/04/30 11:33:24;;;;;;;3.50;3.20;;;17.10;99.90;;;;;;5019423;28;20045;-47
2023/04/30 11:35:51;;;;;;;4.35;3.40;;;16.80;99.90;;;;;;5011069;28;20050;-48
2023/04/30 11:38:48;;;;;;;5.93;3.35;;;16.80;99.90;;;;;;5011622;28;20125;-47
2023/04/30 11:41:14;;;;;;;4.25;3.33;;;16.80;99.90;;;;;;5011421;28;20089;-47
2023/04/30 11:43:41;;;;;;;6.53;3.22;;;16.80;99.90;;;;;;5016789;28;20042;-46
2023/04/30 11:46:10;;;;;;;3.45;2.83;;;17.00;99.90;;;;;;5011229;28;20042;-47
2023/04/30 11:48:39;;;;;;;8.95;3.05;;;17.40;99.90;;;;;;5016567;28;20108;-47
2023/04/30 11:51:18;;;;;;;3.35;2.90;;;17.40;99.90;;;;;;5027559;28;20041;-47
2023/04/30 11:53:47;;;;;;;5.57;3.20;;;17.60;99.90;;;;;;5029623;28;20041;-47
2023/04/30 11:56:24;;;;;;;9.10;3.53;;;17.70;99.90;;;;;;5023614;28;20505;-47
2023/04/30 11:58:53;;;;;;;3.75;3.15;;;17.70;99.90;;;;;;5028280;28;20038;-48
2023/04/30 12:01:20;;;;;;;4.93;2.97;;;17.90;99.90;;;;;;5017595;28;20042;-47
2023/04/30 12:03:49;;;;;;;3.13;2.83;;;17.90;99.90;;;;;;5021152;28;20044;-48
2023/04/30 12:06:27;;;;;;;2.95;2.67;;;18.00;99.90;;;;;;5020742;28;20547;-45
2023/04/30 12:08:55;;;;;;;;;;;18.10;99.90;;;;;;5019476;28;20042;-48
2023/04/30 12:11:30;;;;;;;3.95;2.80;;;18.20;99.90;;;;;;5021299;28;19944;-48
2023/04/30 12:14:03;;;;;;;3.65;3.25;;;18.50;99.90;;;;;;5023058;28;20052;-48
2023/04/30 12:16:49;;;;;;;3.42;3.00;;;18.30;99.90;;;;;;5018960;28;20465;-48
2023/04/30 12:19:17;;;;;;;3.70;3.22;;;18.40;99.90;;;;;;5021298;28;20042;-48
2023/04/30 12:21:46;;;;;;;4.05;3.47;;;18.40;99.90;;;;;;5018868;28;20041;-47
2023/04/30 12:24:14;;;;;;;4.40;2.90;;;18.00;99.90;;;;;;5020577;28;20091;-47
2023/04/30 12:26:41;;;;;;;3.28;2.92;;;18.30;99.90;;;;;;5023779;28;20486;-51
2023/04/30 12:29:10;;;;;;;4.55;2.72;;;18.20;99.90;;;;;;5012147;28;20532;-50
2023/04/30 12:31:41;;;;;;;4.45;3.38;;;18.40;99.90;;;;;;5021291;28;20042;-48
2023/04/30 12:34:11;;;;;;;5.22;3.33;;;18.50;99.90;;;;;;5019437;28;20522;-47
2023/04/30 12:36:41;;;;;;;6.07;3.30;;;18.50;99.90;;;;;;5019776;28;20050;-48
2023/04/30 12:39:11;;;;;;;4.68;2.67;;;18.60;99.90;;;;;;5019610;28;20124;-47
2023/04/30 12:41:42;;;;;;;3.42;2.88;;;18.70;99.90;;;;;;5021735;28;20049;-48
2023/04/30 12:44:15;;;;;;;3.55;2.90;;;18.90;99.90;;;;;;5017995;28;20049;-47
2023/04/30 12:46:42;;;;;;;3.60;3.00;;;19.00;99.90;;;;;;5019402;28;20068;-49
2023/04/30 12:49:10;;;;;;;6.28;3.05;;;18.90;99.90;;;;;;5016776;28;20483;-49
2023/04/30 12:51:40;;;;;;;3.90;3.13;;;18.90;99.90;;;;;;5021101;28;20060;-47